sensor_id;sensor_type;location;lat;lon;timestamp;P1;durP1;ratioP1;P2;durP2;ratioP2
19780;SDS011;10050;55.492;13.506;2022-08-19T00:01:45;12.73;;;11.53;;
19780;SDS011;10050;55.492;13.506;2022-08-19T00:04:13;14.27;;;12.90;;
19780;SDS011;10050;55.492;13.506;2022-08-19T00:06:42;14.00;;;12.73;;
19780;SDS011;10050;55.492;13.506;2022-08-19T00:09:10;15.73;;;12.87;;
19780;SDS011;10050;55.492;13.506;2022-08-19T00:11:37;13.53;;;12.33;;
19780;SDS011;10050;55.492;13.506;2022-08-19T00:14:04;13.30;;;12.10;;
19780;SDS011;10050;55.492;13.506;2022-08-19T00:16:31;12.93;;;11.80;;
19780;SDS011;10050;55.492;13.506;2022-08-19T00:18:56;16.93;;;12.20;;
19780;SDS011;10050;55.492;13.506;2022-08-19T00:21:23;14.53;;;13.13;;
19780;SDS011;10050;55.492;13.506;2022-08-19T00:23:51;14.50;;;13.00;;
19780;SDS011;10050;55.492;13.506;2022-08-19T00:26:18;14.07;;;12.77;;
19780;SDS011;10050;55.492;13.506;2022-08-19T00:28:44;14.97;;;13.47;;
19780;SDS011;10050;55.492;13.506;2022-08-19T00:31:10;15.27;;;13.33;;
19780;SDS011;10050;55.492;13.506;2022-08-19T00:33:35;15.53;;;13.93;;
19780;SDS011;10050;55.492;13.506;2022-08-19T00:36:02;14.57;;;13.17;;
19780;SDS011;10050;55.492;13.506;2022-08-19T00:38:31;15.37;;;13.80;;
19780;SDS011;10050;55.492;13.506;2022-08-19T00:40:57;12.97;;;11.67;;
19780;SDS011;10050;55.492;13.506;2022-08-19T00:43:24;14.60;;;13.23;;
19780;SDS011;10050;55.492;13.506;2022-08-19T00:45:52;14.67;;;13.27;;
19780;SDS011;10050;55.492;13.506;2022-08-19T00:48:18;14.90;;;13.50;;
19780;SDS011;10050;55.492;13.506;2022-08-19T00:50:46;13.67;;;12.47;;
19780;SDS011;10050;55.492;13.506;2022-08-19T00:53:14;16.23;;;14.53;;
19780;SDS011;10050;55.492;13.506;2022-08-19T00:55:47;14.67;;;13.17;;
19780;SDS011;10050;55.492;13.506;2022-08-19T00:58:15;13.70;;;12.40;;
19780;SDS011;10050;55.492;13.506;2022-08-19T01:00:44;14.10;;;12.70;;
19780;SDS011;10050;55.492;13.506;2022-08-19T01:03:12;14.47;;;13.00;;
19780;SDS011;10050;55.492;13.506;2022-08-19T01:05:44;14.73;;;12.70;;
19780;SDS011;10050;55.492;13.506;2022-08-19T01:08:10;14.53;;;13.03;;
19780;SDS011;10050;55.492;13.506;2022-08-19T01:10:38;15.87;;;14.37;;
19780;SDS011;10050;55.492;13.506;2022-08-19T01:13:17;14.47;;;12.47;;
19780;SDS011;10050;55.492;13.506;2022-08-19T01:15:46;11.20;;;10.10;;
19780;SDS011;10050;55.492;13.506;2022-08-19T01:18:16;12.83;;;11.60;;
19780;SDS011;10050;55.492;13.506;2022-08-19T01:20:44;14.33;;;12.97;;
19780;SDS011;10050;55.492;13.506;2022-08-19T01:23:10;14.57;;;13.23;;
19780;SDS011;10050;55.492;13.506;2022-08-19T01:28:22;12.20;;;11.03;;
19780;SDS011;10050;55.492;13.506;2022-08-19T01:30:53;13.67;;;12.37;;
19780;SDS011;10050;55.492;13.506;2022-08-19T01:33:19;13.47;;;12.13;;
19780;SDS011;10050;55.492;13.506;2022-08-19T01:35:45;13.40;;;12.20;;
19780;SDS011;10050;55.492;13.506;2022-08-19T01:38:25;13.37;;;12.13;;
19780;SDS011;10050;55.492;13.506;2022-08-19T01:40:51;13.53;;;12.23;;
19780;SDS011;10050;55.492;13.506;2022-08-19T01:43:17;13.77;;;12.40;;
19780;SDS011;10050;55.492;13.506;2022-08-19T01:45:44;15.07;;;13.27;;
19780;SDS011;10050;55.492;13.506;2022-08-19T01:48:10;14.50;;;13.00;;
19780;SDS011;10050;55.492;13.506;2022-08-19T01:50:37;15.90;;;14.37;;
19780;SDS011;10050;55.492;13.506;2022-08-19T01:53:04;15.33;;;13.93;;
19780;SDS011;10050;55.492;13.506;2022-08-19T01:55:32;15.17;;;13.57;;
19780;SDS011;10050;55.492;13.506;2022-08-19T01:58:00;15.70;;;14.10;;
19780;SDS011;10050;55.492;13.506;2022-08-19T02:00:29;14.57;;;13.17;;
19780;SDS011;10050;55.492;13.506;2022-08-19T02:02:56;16.23;;;14.27;;
19780;SDS011;10050;55.492;13.506;2022-08-19T02:05:22;14.67;;;13.27;;
19780;SDS011;10050;55.492;13.506;2022-08-19T02:07:48;15.43;;;13.93;;
19780;SDS011;10050;55.492;13.506;2022-08-19T02:10:17;14.37;;;12.97;;
19780;SDS011;10050;55.492;13.506;2022-08-19T02:12:45;13.37;;;12.07;;
19780;SDS011;10050;55.492;13.506;2022-08-19T02:15:11;13.17;;;11.87;;
19780;SDS011;10050;55.492;13.506;2022-08-19T02:17:37;13.00;;;11.70;;
19780;SDS011;10050;55.492;13.506;2022-08-19T02:20:04;17.60;;;13.13;;
19780;SDS011;10050;55.492;13.506;2022-08-19T02:22:31;15.30;;;13.83;;
19780;SDS011;10050;55.492;13.506;2022-08-19T02:24:57;15.20;;;13.80;;
19780;SDS011;10050;55.492;13.506;2022-08-19T02:27:23;15.67;;;14.27;;
19780;SDS011;10050;55.492;13.506;2022-08-19T02:29:49;14.23;;;12.80;;
19780;SDS011;10050;55.492;13.506;2022-08-19T02:32:16;15.00;;;13.50;;
19780;SDS011;10050;55.492;13.506;2022-08-19T02:34:44;13.70;;;12.50;;
19780;SDS011;10050;55.492;13.506;2022-08-19T02:37:10;14.70;;;13.20;;
19780;SDS011;10050;55.492;13.506;2022-08-19T02:39:56;12.60;;;11.40;;
19780;SDS011;10050;55.492;13.506;2022-08-19T02:42:22;14.90;;;13.47;;
19780;SDS011;10050;55.492;13.506;2022-08-19T02:44:47;14.27;;;12.87;;
19780;SDS011;10050;55.492;13.506;2022-08-19T02:47:13;15.80;;;13.63;;
19780;SDS011;10050;55.492;13.506;2022-08-19T02:49:40;15.17;;;13.73;;
19780;SDS011;10050;55.492;13.506;2022-08-19T02:52:06;14.23;;;12.83;;
19780;SDS011;10050;55.492;13.506;2022-08-19T02:54:33;13.40;;;12.20;;
19780;SDS011;10050;55.492;13.506;2022-08-19T02:56:59;13.57;;;12.30;;
19780;SDS011;10050;55.492;13.506;2022-08-19T02:59:24;14.67;;;13.27;;
19780;SDS011;10050;55.492;13.506;2022-08-19T03:01:50;13.90;;;12.63;;
19780;SDS011;10050;55.492;13.506;2022-08-19T03:04:16;14.77;;;12.37;;
19780;SDS011;10050;55.492;13.506;2022-08-19T03:06:44;13.30;;;11.90;;
19780;SDS011;10050;55.492;13.506;2022-08-19T03:09:11;11.87;;;10.73;;
19780;SDS011;10050;55.492;13.506;2022-08-19T03:11:38;13.60;;;12.27;;
19780;SDS011;10050;55.492;13.506;2022-08-19T03:14:04;12.83;;;11.53;;
19780;SDS011;10050;55.492;13.506;2022-08-19T03:16:32;13.17;;;12.07;;
19780;SDS011;10050;55.492;13.506;2022-08-19T03:19:00;13.20;;;11.90;;
19780;SDS011;10050;55.492;13.506;2022-08-19T03:21:27;14.43;;;12.97;;
19780;SDS011;10050;55.492;13.506;2022-08-19T03:23:59;13.33;;;12.03;;
19780;SDS011;10050;55.492;13.506;2022-08-19T03:26:30;12.63;;;11.53;;
19780;SDS011;10050;55.492;13.506;2022-08-19T03:28:56;13.50;;;12.20;;
19780;SDS011;10050;55.492;13.506;2022-08-19T03:31:24;14.13;;;12.83;;
19780;SDS011;10050;55.492;13.506;2022-08-19T03:33:51;13.90;;;12.50;;
19780;SDS011;10050;55.492;13.506;2022-08-19T03:36:18;13.47;;;12.17;;
19780;SDS011;10050;55.492;13.506;2022-08-19T03:38:52;13.93;;;12.27;;
19780;SDS011;10050;55.492;13.506;2022-08-19T03:41:22;13.30;;;12.00;;
19780;SDS011;10050;55.492;13.506;2022-08-19T03:43:50;13.13;;;11.83;;
19780;SDS011;10050;55.492;13.506;2022-08-19T03:46:18;14.40;;;12.30;;
19780;SDS011;10050;55.492;13.506;2022-08-19T03:48:48;13.30;;;11.93;;
19780;SDS011;10050;55.492;13.506;2022-08-19T03:51:28;13.90;;;12.53;;
19780;SDS011;10050;55.492;13.506;2022-08-19T03:53:56;11.67;;;10.57;;
19780;SDS011;10050;55.492;13.506;2022-08-19T03:56:24;13.00;;;11.73;;
19780;SDS011;10050;55.492;13.506;2022-08-19T03:58:53;14.90;;;13.50;;
19780;SDS011;10050;55.492;13.506;2022-08-19T04:01:21;14.50;;;13.10;;
19780;SDS011;10050;55.492;13.506;2022-08-19T04:03:48;15.13;;;13.60;;
19780;SDS011;10050;55.492;13.506;2022-08-19T04:06:15;12.47;;;11.40;;
19780;SDS011;10050;55.492;13.506;2022-08-19T04:08:44;13.93;;;12.10;;
19780;SDS011;10050;55.492;13.506;2022-08-19T04:11:14;13.87;;;12.60;;
19780;SDS011;10050;55.492;13.506;2022-08-19T04:13:42;14.00;;;12.70;;
19780;SDS011;10050;55.492;13.506;2022-08-19T04:16:09;12.10;;;10.90;;
19780;SDS011;10050;55.492;13.506;2022-08-19T04:18:36;13.87;;;12.43;;
19780;SDS011;10050;55.492;13.506;2022-08-19T04:21:04;12.97;;;11.77;;
19780;SDS011;10050;55.492;13.506;2022-08-19T04:23:30;13.77;;;12.47;;
19780;SDS011;10050;55.492;13.506;2022-08-19T04:25:57;13.33;;;12.13;;
19780;SDS011;10050;55.492;13.506;2022-08-19T04:28:23;13.23;;;11.93;;
19780;SDS011;10050;55.492;13.506;2022-08-19T04:30:50;12.23;;;11.13;;
19780;SDS011;10050;55.492;13.506;2022-08-19T04:33:18;12.83;;;11.53;;
19780;SDS011;10050;55.492;13.506;2022-08-19T04:35:47;12.20;;;10.97;;
19780;SDS011;10050;55.492;13.506;2022-08-19T04:38:14;12.60;;;11.40;;
19780;SDS011;10050;55.492;13.506;2022-08-19T04:40:43;12.03;;;10.73;;
19780;SDS011;10050;55.492;13.506;2022-08-19T04:43:29;11.77;;;10.73;;
19780;SDS011;10050;55.492;13.506;2022-08-19T04:45:55;11.97;;;10.77;;
19780;SDS011;10050;55.492;13.506;2022-08-19T04:48:21;13.30;;;12.00;;
19780;SDS011;10050;55.492;13.506;2022-08-19T04:50:54;13.30;;;11.57;;
19780;SDS011;10050;55.492;13.506;2022-08-19T04:53:28;14.50;;;12.90;;
19780;SDS011;10050;55.492;13.506;2022-08-19T04:55:55;14.00;;;12.77;;
19780;SDS011;10050;55.492;13.506;2022-08-19T04:58:22;12.07;;;10.97;;
19780;SDS011;10050;55.492;13.506;2022-08-19T05:00:49;15.73;;;14.13;;
19780;SDS011;10050;55.492;13.506;2022-08-19T05:03:15;16.67;;;15.13;;
19780;SDS011;10050;55.492;13.506;2022-08-19T05:05:42;16.47;;;14.87;;
19780;SDS011;10050;55.492;13.506;2022-08-19T05:08:09;15.80;;;14.27;;
19780;SDS011;10050;55.492;13.506;2022-08-19T05:10:35;20.20;;;18.30;;
19780;SDS011;10050;55.492;13.506;2022-08-19T05:13:04;23.47;;;21.27;;
19780;SDS011;10050;55.492;13.506;2022-08-19T05:15:31;20.50;;;18.50;;
19780;SDS011;10050;55.492;13.506;2022-08-19T05:17:56;18.87;;;16.93;;
19780;SDS011;10050;55.492;13.506;2022-08-19T05:20:41;22.80;;;20.37;;
19780;SDS011;10050;55.492;13.506;2022-08-19T05:23:25;23.87;;;21.57;;
19780;SDS011;10050;55.492;13.506;2022-08-19T05:25:51;21.33;;;19.07;;
19780;SDS011;10050;55.492;13.506;2022-08-19T05:28:17;21.83;;;19.73;;
19780;SDS011;10050;55.492;13.506;2022-08-19T05:30:44;20.90;;;18.77;;
19780;SDS011;10050;55.492;13.506;2022-08-19T05:33:10;23.97;;;21.67;;
19780;SDS011;10050;55.492;13.506;2022-08-19T05:35:37;23.80;;;21.33;;
19780;SDS011;10050;55.492;13.506;2022-08-19T05:38:04;21.67;;;19.47;;
19780;SDS011;10050;55.492;13.506;2022-08-19T05:40:33;15.47;;;13.87;;
19780;SDS011;10050;55.492;13.506;2022-08-19T05:43:03;15.13;;;13.67;;
19780;SDS011;10050;55.492;13.506;2022-08-19T05:45:30;14.43;;;13.03;;
19780;SDS011;10050;55.492;13.506;2022-08-19T05:47:56;17.03;;;15.43;;
19780;SDS011;10050;55.492;13.506;2022-08-19T05:50:22;17.47;;;15.77;;
19780;SDS011;10050;55.492;13.506;2022-08-19T05:52:48;13.57;;;12.33;;
19780;SDS011;10050;55.492;13.506;2022-08-19T05:55:13;28.20;;;21.07;;
19780;SDS011;10050;55.492;13.506;2022-08-19T05:57:39;23.67;;;21.37;;
19780;SDS011;10050;55.492;13.506;2022-08-19T06:00:05;25.30;;;22.33;;
19780;SDS011;10050;55.492;13.506;2022-08-19T06:02:36;23.67;;;19.67;;
19780;SDS011;10050;55.492;13.506;2022-08-19T06:05:03;19.60;;;17.67;;
19780;SDS011;10050;55.492;13.506;2022-08-19T06:07:32;22.83;;;20.60;;
19780;SDS011;10050;55.492;13.506;2022-08-19T06:09:57;26.60;;;22.73;;
19780;SDS011;10050;55.492;13.506;2022-08-19T06:12:23;23.03;;;20.93;;
19780;SDS011;10050;55.492;13.506;2022-08-19T06:14:57;24.50;;;21.90;;
19780;SDS011;10050;55.492;13.506;2022-08-19T06:17:24;23.73;;;21.47;;
19780;SDS011;10050;55.492;13.506;2022-08-19T06:19:50;26.03;;;23.37;;
19780;SDS011;10050;55.492;13.506;2022-08-19T06:22:16;23.70;;;21.40;;
19780;SDS011;10050;55.492;13.506;2022-08-19T06:24:42;24.47;;;22.07;;
19780;SDS011;10050;55.492;13.506;2022-08-19T06:27:08;25.17;;;22.53;;
19780;SDS011;10050;55.492;13.506;2022-08-19T06:29:34;25.03;;;22.67;;
19780;SDS011;10050;55.492;13.506;2022-08-19T06:32:03;25.67;;;23.07;;
19780;SDS011;10050;55.492;13.506;2022-08-19T06:34:30;26.30;;;23.70;;
19780;SDS011;10050;55.492;13.506;2022-08-19T06:36:58;25.23;;;22.83;;
19780;SDS011;10050;55.492;13.506;2022-08-19T06:39:27;23.33;;;21.07;;
19780;SDS011;10050;55.492;13.506;2022-08-19T06:41:56;18.73;;;17.03;;
19780;SDS011;10050;55.492;13.506;2022-08-19T06:44:25;20.90;;;18.80;;
19780;SDS011;10050;55.492;13.506;2022-08-19T06:46:53;17.63;;;15.93;;
19780;SDS011;10050;55.492;13.506;2022-08-19T06:49:20;17.70;;;15.80;;
19780;SDS011;10050;55.492;13.506;2022-08-19T06:51:46;14.17;;;12.97;;
19780;SDS011;10050;55.492;13.506;2022-08-19T06:54:14;13.03;;;11.93;;
19780;SDS011;10050;55.492;13.506;2022-08-19T06:56:41;15.70;;;13.93;;
19780;SDS011;10050;55.492;13.506;2022-08-19T06:59:10;14.07;;;12.73;;
19780;SDS011;10050;55.492;13.506;2022-08-19T07:01:42;14.23;;;12.83;;
19780;SDS011;10050;55.492;13.506;2022-08-19T07:04:12;13.53;;;12.27;;
19780;SDS011;10050;55.492;13.506;2022-08-19T07:06:39;14.33;;;12.93;;
19780;SDS011;10050;55.492;13.506;2022-08-19T07:09:05;12.47;;;11.43;;
19780;SDS011;10050;55.492;13.506;2022-08-19T07:11:34;13.30;;;12.20;;
19780;SDS011;10050;55.492;13.506;2022-08-19T07:14:00;12.37;;;11.17;;
19780;SDS011;10050;55.492;13.506;2022-08-19T07:16:27;13.73;;;12.50;;
19780;SDS011;10050;55.492;13.506;2022-08-19T07:18:53;11.57;;;10.37;;
19780;SDS011;10050;55.492;13.506;2022-08-19T07:21:22;13.13;;;12.00;;
19780;SDS011;10050;55.492;13.506;2022-08-19T07:23:50;12.03;;;11.03;;
19780;SDS011;10050;55.492;13.506;2022-08-19T07:28:45;10.97;;;10.07;;
19780;SDS011;10050;55.492;13.506;2022-08-19T07:31:13;10.93;;;9.93;;
19780;SDS011;10050;55.492;13.506;2022-08-19T07:33:40;10.67;;;9.67;;
19780;SDS011;10050;55.492;13.506;2022-08-19T07:36:08;10.40;;;9.60;;
19780;SDS011;10050;55.492;13.506;2022-08-19T07:38:38;10.63;;;9.73;;
19780;SDS011;10050;55.492;13.506;2022-08-19T07:41:06;13.93;;;9.53;;
19780;SDS011;10050;55.492;13.506;2022-08-19T07:43:32;10.03;;;9.03;;
19780;SDS011;10050;55.492;13.506;2022-08-19T07:45:58;9.50;;;8.63;;
19780;SDS011;10050;55.492;13.506;2022-08-19T07:48:24;8.73;;;8.03;;
19780;SDS011;10050;55.492;13.506;2022-08-19T07:50:52;9.20;;;8.40;;
19780;SDS011;10050;55.492;13.506;2022-08-19T07:53:20;8.70;;;8.00;;
19780;SDS011;10050;55.492;13.506;2022-08-19T07:55:46;7.80;;;7.20;;
19780;SDS011;10050;55.492;13.506;2022-08-19T07:58:12;7.87;;;7.27;;
19780;SDS011;10050;55.492;13.506;2022-08-19T08:00:40;8.07;;;7.37;;
19780;SDS011;10050;55.492;13.506;2022-08-19T08:03:07;7.93;;;7.33;;
19780;SDS011;10050;55.492;13.506;2022-08-19T08:05:34;8.57;;;7.30;;
19780;SDS011;10050;55.492;13.506;2022-08-19T08:08:18;7.50;;;6.93;;
19780;SDS011;10050;55.492;13.506;2022-08-19T08:11:07;8.13;;;7.43;;
19780;SDS011;10050;55.492;13.506;2022-08-19T08:13:34;7.80;;;7.20;;
19780;SDS011;10050;55.492;13.506;2022-08-19T08:16:02;7.07;;;6.50;;
19780;SDS011;10050;55.492;13.506;2022-08-19T08:18:28;6.80;;;6.30;;
19780;SDS011;10050;55.492;13.506;2022-08-19T08:20:54;6.70;;;6.10;;
19780;SDS011;10050;55.492;13.506;2022-08-19T08:23:20;8.83;;;7.00;;
19780;SDS011;10050;55.492;13.506;2022-08-19T08:25:54;7.20;;;6.50;;
19780;SDS011;10050;55.492;13.506;2022-08-19T08:28:22;7.20;;;6.50;;
19780;SDS011;10050;55.492;13.506;2022-08-19T08:30:48;7.40;;;6.80;;
19780;SDS011;10050;55.492;13.506;2022-08-19T08:33:18;9.87;;;7.43;;
19780;SDS011;10050;55.492;13.506;2022-08-19T08:35:46;7.37;;;6.67;;
19780;SDS011;10050;55.492;13.506;2022-08-19T08:38:12;7.90;;;7.10;;
19780;SDS011;10050;55.492;13.506;2022-08-19T08:43:11;8.00;;;7.30;;
19780;SDS011;10050;55.492;13.506;2022-08-19T08:46:09;7.50;;;6.80;;
19780;SDS011;10050;55.492;13.506;2022-08-19T08:48:54;8.57;;;7.77;;
19780;SDS011;10050;55.492;13.506;2022-08-19T08:54:05;8.27;;;7.47;;
19780;SDS011;10050;55.492;13.506;2022-08-19T08:56:32;8.73;;;7.93;;
19780;SDS011;10050;55.492;13.506;2022-08-19T08:59:03;9.27;;;8.37;;
19780;SDS011;10050;55.492;13.506;2022-08-19T09:01:37;8.13;;;7.43;;
19780;SDS011;10050;55.492;13.506;2022-08-19T09:04:06;8.83;;;8.00;;
19780;SDS011;10050;55.492;13.506;2022-08-19T09:06:40;8.13;;;7.33;;
19780;SDS011;10050;55.492;13.506;2022-08-19T09:09:20;8.00;;;7.30;;
19780;SDS011;10050;55.492;13.506;2022-08-19T09:12:05;8.47;;;7.67;;
19780;SDS011;10050;55.492;13.506;2022-08-19T09:17:15;8.83;;;6.87;;
19780;SDS011;10050;55.492;13.506;2022-08-19T09:19:51;7.90;;;7.20;;
19780;SDS011;10050;55.492;13.506;2022-08-19T09:22:21;9.33;;;7.40;;
19780;SDS011;10050;55.492;13.506;2022-08-19T09:24:48;8.57;;;7.87;;
19780;SDS011;10050;55.492;13.506;2022-08-19T09:27:17;7.73;;;6.93;;
19780;SDS011;10050;55.492;13.506;2022-08-19T09:29:43;9.60;;;6.90;;
19780;SDS011;10050;55.492;13.506;2022-08-19T09:32:09;8.73;;;6.47;;
19780;SDS011;10050;55.492;13.506;2022-08-19T09:34:35;7.83;;;7.03;;
19780;SDS011;10050;55.492;13.506;2022-08-19T09:37:00;9.97;;;6.53;;
19780;SDS011;10050;55.492;13.506;2022-08-19T09:39:27;9.20;;;6.50;;
19780;SDS011;10050;55.492;13.506;2022-08-19T09:41:53;8.23;;;6.63;;
19780;SDS011;10050;55.492;13.506;2022-08-19T09:44:19;7.03;;;6.43;;
19780;SDS011;10050;55.492;13.506;2022-08-19T09:46:47;8.93;;;7.20;;
19780;SDS011;10050;55.492;13.506;2022-08-19T09:49:13;8.70;;;7.67;;
19780;SDS011;10050;55.492;13.506;2022-08-19T09:51:39;7.47;;;6.77;;
19780;SDS011;10050;55.492;13.506;2022-08-19T09:54:05;8.03;;;7.03;;
19780;SDS011;10050;55.492;13.506;2022-08-19T09:56:31;8.43;;;6.83;;
19780;SDS011;10050;55.492;13.506;2022-08-19T09:58:58;8.07;;;5.93;;
19780;SDS011;10050;55.492;13.506;2022-08-19T10:01:25;6.90;;;6.10;;
19780;SDS011;10050;55.492;13.506;2022-08-19T10:03:53;8.07;;;6.40;;
19780;SDS011;10050;55.492;13.506;2022-08-19T10:06:21;6.80;;;5.97;;
19780;SDS011;10050;55.492;13.506;2022-08-19T10:08:49;7.37;;;5.77;;
19780;SDS011;10050;55.492;13.506;2022-08-19T10:11:14;6.13;;;5.40;;
19780;SDS011;10050;55.492;13.506;2022-08-19T10:13:41;8.40;;;6.33;;
19780;SDS011;10050;55.492;13.506;2022-08-19T10:16:10;7.47;;;6.30;;
19780;SDS011;10050;55.492;13.506;2022-08-19T10:18:39;6.30;;;5.80;;
19780;SDS011;10050;55.492;13.506;2022-08-19T10:21:10;6.23;;;5.73;;
19780;SDS011;10050;55.492;13.506;2022-08-19T10:23:38;10.07;;;5.87;;
19780;SDS011;10050;55.492;13.506;2022-08-19T10:26:05;7.37;;;6.47;;
19780;SDS011;10050;55.492;13.506;2022-08-19T10:28:35;9.57;;;6.80;;
19780;SDS011;10050;55.492;13.506;2022-08-19T10:31:07;6.93;;;6.27;;
19780;SDS011;10050;55.492;13.506;2022-08-19T10:33:35;6.83;;;6.13;;
19780;SDS011;10050;55.492;13.506;2022-08-19T10:36:06;7.10;;;5.90;;
19780;SDS011;10050;55.492;13.506;2022-08-19T10:38:34;6.57;;;5.90;;
19780;SDS011;10050;55.492;13.506;2022-08-19T10:41:11;6.30;;;5.70;;
19780;SDS011;10050;55.492;13.506;2022-08-19T10:43:42;6.77;;;6.10;;
19780;SDS011;10050;55.492;13.506;2022-08-19T10:46:10;7.00;;;5.53;;
19780;SDS011;10050;55.492;13.506;2022-08-19T10:48:38;7.13;;;6.33;;
19780;SDS011;10050;55.492;13.506;2022-08-19T10:51:04;6.70;;;5.90;;
19780;SDS011;10050;55.492;13.506;2022-08-19T10:53:49;6.07;;;5.57;;
19780;SDS011;10050;55.492;13.506;2022-08-19T10:56:15;6.90;;;6.17;;
19780;SDS011;10050;55.492;13.506;2022-08-19T10:58:59;7.27;;;5.87;;
19780;SDS011;10050;55.492;13.506;2022-08-19T11:01:26;7.03;;;6.00;;
19780;SDS011;10050;55.492;13.506;2022-08-19T11:03:52;6.93;;;6.23;;
19780;SDS011;10050;55.492;13.506;2022-08-19T11:06:18;6.30;;;5.70;;
19780;SDS011;10050;55.492;13.506;2022-08-19T11:08:45;6.17;;;5.63;;
19780;SDS011;10050;55.492;13.506;2022-08-19T11:11:11;6.20;;;5.60;;
19780;SDS011;10050;55.492;13.506;2022-08-19T11:13:39;6.40;;;5.90;;
19780;SDS011;10050;55.492;13.506;2022-08-19T11:18:35;7.00;;;6.20;;
19780;SDS011;10050;55.492;13.506;2022-08-19T11:21:08;12.07;;;6.93;;
19780;SDS011;10050;55.492;13.506;2022-08-19T11:23:37;6.10;;;5.60;;
19780;SDS011;10050;55.492;13.506;2022-08-19T11:26:03;9.40;;;6.20;;
19780;SDS011;10050;55.492;13.506;2022-08-19T11:28:29;5.67;;;5.27;;
19780;SDS011;10050;55.492;13.506;2022-08-19T11:30:54;8.27;;;5.20;;
19780;SDS011;10050;55.492;13.506;2022-08-19T11:33:20;5.80;;;5.30;;
19780;SDS011;10050;55.492;13.506;2022-08-19T11:35:46;5.77;;;5.30;;
19780;SDS011;10050;55.492;13.506;2022-08-19T11:38:11;5.73;;;5.33;;
19780;SDS011;10050;55.492;13.506;2022-08-19T11:40:38;5.97;;;5.37;;
19780;SDS011;10050;55.492;13.506;2022-08-19T11:43:05;6.10;;;5.50;;
19780;SDS011;10050;55.492;13.506;2022-08-19T11:45:31;6.57;;;5.70;;
19780;SDS011;10050;55.492;13.506;2022-08-19T11:47:56;6.40;;;5.77;;
19780;SDS011;10050;55.492;13.506;2022-08-19T11:50:22;6.87;;;6.17;;
19780;SDS011;10050;55.492;13.506;2022-08-19T11:52:48;6.23;;;5.73;;
19780;SDS011;10050;55.492;13.506;2022-08-19T11:55:14;6.40;;;5.80;;
19780;SDS011;10050;55.492;13.506;2022-08-19T11:57:40;6.43;;;5.77;;
19780;SDS011;10050;55.492;13.506;2022-08-19T12:00:08;6.10;;;5.63;;
19780;SDS011;10050;55.492;13.506;2022-08-19T12:02:36;6.77;;;6.17;;
19780;SDS011;10050;55.492;13.506;2022-08-19T12:05:02;7.53;;;6.40;;
19780;SDS011;10050;55.492;13.506;2022-08-19T12:07:28;6.63;;;6.03;;
19780;SDS011;10050;55.492;13.506;2022-08-19T12:09:58;6.37;;;5.70;;
19780;SDS011;10050;55.492;13.506;2022-08-19T12:12:24;7.40;;;6.80;;
19780;SDS011;10050;55.492;13.506;2022-08-19T12:14:51;7.67;;;6.97;;
19780;SDS011;10050;55.492;13.506;2022-08-19T12:17:22;7.47;;;6.67;;
19780;SDS011;10050;55.492;13.506;2022-08-19T12:19:48;6.97;;;6.37;;
19780;SDS011;10050;55.492;13.506;2022-08-19T12:22:14;6.90;;;6.30;;
19780;SDS011;10050;55.492;13.506;2022-08-19T12:24:40;6.93;;;6.33;;
19780;SDS011;10050;55.492;13.506;2022-08-19T12:27:05;6.87;;;6.27;;
19780;SDS011;10050;55.492;13.506;2022-08-19T12:29:31;7.83;;;7.10;;
19780;SDS011;10050;55.492;13.506;2022-08-19T12:31:57;8.90;;;6.33;;
19780;SDS011;10050;55.492;13.506;2022-08-19T12:34:30;6.07;;;5.60;;
19780;SDS011;10050;55.492;13.506;2022-08-19T12:36:57;7.23;;;6.60;;
19780;SDS011;10050;55.492;13.506;2022-08-19T12:39:25;7.17;;;6.40;;
19780;SDS011;10050;55.492;13.506;2022-08-19T12:41:51;6.90;;;6.37;;
19780;SDS011;10050;55.492;13.506;2022-08-19T12:44:17;6.20;;;5.60;;
19780;SDS011;10050;55.492;13.506;2022-08-19T12:46:43;6.80;;;6.30;;
19780;SDS011;10050;55.492;13.506;2022-08-19T12:49:09;7.20;;;6.60;;
19780;SDS011;10050;55.492;13.506;2022-08-19T12:51:35;7.57;;;6.70;;
19780;SDS011;10050;55.492;13.506;2022-08-19T12:54:01;7.13;;;6.53;;
19780;SDS011;10050;55.492;13.506;2022-08-19T12:56:28;7.40;;;6.80;;
19780;SDS011;10050;55.492;13.506;2022-08-19T12:58:54;7.20;;;6.60;;
19780;SDS011;10050;55.492;13.506;2022-08-19T13:01:20;10.57;;;7.77;;
19780;SDS011;10050;55.492;13.506;2022-08-19T13:03:46;7.77;;;7.17;;
19780;SDS011;10050;55.492;13.506;2022-08-19T13:06:12;8.00;;;7.30;;
19780;SDS011;10050;55.492;13.506;2022-08-19T13:08:38;8.40;;;7.70;;
19780;SDS011;10050;55.492;13.506;2022-08-19T13:11:11;8.80;;;8.10;;
19780;SDS011;10050;55.492;13.506;2022-08-19T13:13:43;8.13;;;7.33;;
19780;SDS011;10050;55.492;13.506;2022-08-19T13:16:10;7.87;;;7.03;;
19780;SDS011;10050;55.492;13.506;2022-08-19T13:18:36;9.20;;;7.63;;
19780;SDS011;10050;55.492;13.506;2022-08-19T13:21:03;8.30;;;7.50;;
19780;SDS011;10050;55.492;13.506;2022-08-19T13:23:30;7.83;;;7.23;;
19780;SDS011;10050;55.492;13.506;2022-08-19T13:26:00;8.77;;;7.37;;
19780;SDS011;10050;55.492;13.506;2022-08-19T13:28:28;8.33;;;7.30;;
19780;SDS011;10050;55.492;13.506;2022-08-19T13:31:20;7.93;;;6.67;;
19780;SDS011;10050;55.492;13.506;2022-08-19T13:34:06;9.87;;;7.37;;
19780;SDS011;10050;55.492;13.506;2022-08-19T13:36:34;7.63;;;6.93;;
19780;SDS011;10050;55.492;13.506;2022-08-19T13:39:00;8.13;;;7.43;;
19780;SDS011;10050;55.492;13.506;2022-08-19T13:41:26;8.83;;;7.10;;
19780;SDS011;10050;55.492;13.506;2022-08-19T13:43:52;8.50;;;7.80;;
19780;SDS011;10050;55.492;13.506;2022-08-19T13:46:19;9.87;;;7.70;;
19780;SDS011;10050;55.492;13.506;2022-08-19T13:48:46;8.23;;;7.50;;
19780;SDS011;10050;55.492;13.506;2022-08-19T13:51:13;7.83;;;7.23;;
19780;SDS011;10050;55.492;13.506;2022-08-19T13:53:41;9.00;;;8.20;;
19780;SDS011;10050;55.492;13.506;2022-08-19T13:56:08;9.80;;;8.83;;
19780;SDS011;10050;55.492;13.506;2022-08-19T13:58:37;8.27;;;7.57;;
19780;SDS011;10050;55.492;13.506;2022-08-19T14:01:04;8.87;;;8.07;;
19780;SDS011;10050;55.492;13.506;2022-08-19T14:03:30;8.30;;;7.50;;
19780;SDS011;10050;55.492;13.506;2022-08-19T14:05:57;9.47;;;8.67;;
19780;SDS011;10050;55.492;13.506;2022-08-19T14:08:23;9.90;;;9.10;;
19780;SDS011;10050;55.492;13.506;2022-08-19T14:10:49;10.03;;;9.17;;
19780;SDS011;10050;55.492;13.506;2022-08-19T14:13:16;9.67;;;8.67;;
19780;SDS011;10050;55.492;13.506;2022-08-19T14:15:43;11.30;;;9.37;;
19780;SDS011;10050;55.492;13.506;2022-08-19T14:18:09;10.17;;;9.27;;
19780;SDS011;10050;55.492;13.506;2022-08-19T14:20:35;10.67;;;9.77;;
19780;SDS011;10050;55.492;13.506;2022-08-19T14:23:01;10.60;;;9.60;;
19780;SDS011;10050;55.492;13.506;2022-08-19T14:25:28;11.50;;;10.30;;
19780;SDS011;10050;55.492;13.506;2022-08-19T14:27:55;12.03;;;10.77;;
19780;SDS011;10050;55.492;13.506;2022-08-19T14:30:25;10.70;;;9.80;;
19780;SDS011;10050;55.492;13.506;2022-08-19T14:32:54;10.80;;;9.93;;
19780;SDS011;10050;55.492;13.506;2022-08-19T14:35:20;10.63;;;9.50;;
19780;SDS011;10050;55.492;13.506;2022-08-19T14:37:47;10.27;;;9.27;;
19780;SDS011;10050;55.492;13.506;2022-08-19T14:40:16;8.93;;;8.13;;
19780;SDS011;10050;55.492;13.506;2022-08-19T14:42:45;11.47;;;10.37;;